sensor_id;sensor_type;location;lat;lon;timestamp;pressure;altitude;pressure_sealevel;temperature;humidity
21449;BME280;10885;52.830;13.788;2023-12-04T00:00:41;101732.19;;;-3.70;91.79
21449;BME280;10885;52.830;13.788;2023-12-04T00:05:44;101733.88;;;-3.76;92.47
21449;BME280;10885;52.830;13.788;2023-12-04T00:10:47;101730.41;;;-3.71;92.52
21449;BME280;10885;52.830;13.788;2023-12-04T00:15:50;101727.69;;;-3.73;92.32
21449;BME280;10885;52.830;13.788;2023-12-04T00:20:53;101717.81;;;-3.84;92.04
21449;BME280;10885;52.830;13.788;2023-12-04T00:25:56;101729.78;;;-3.94;92.09
21449;BME280;10885;52.830;13.788;2023-12-04T00:30:58;101722.88;;;-4.08;92.09
21449;BME280;10885;52.830;13.788;2023-12-04T00:36:01;101725.09;;;-4.23;92.39
21449;BME280;10885;52.830;13.788;2023-12-04T00:41:04;101728.81;;;-4.32;92.31
21449;BME280;10885;52.830;13.788;2023-12-04T00:46:07;101723.88;;;-4.37;92.35
21449;BME280;10885;52.830;13.788;2023-12-04T00:51:10;101725.22;;;-4.58;91.86
21449;BME280;10885;52.830;13.788;2023-12-04T00:56:12;101735.13;;;-4.71;92.64
21449;BME280;10885;52.830;13.788;2023-12-04T01:01:15;101724.06;;;-4.78;92.38
21449;BME280;10885;52.830;13.788;2023-12-04T01:06:22;101728.91;;;-4.91;92.02
21449;BME280;10885;52.830;13.788;2023-12-04T01:11:25;101739.75;;;-5.09;92.29
21449;BME280;10885;52.830;13.788;2023-12-04T01:16:29;101728.00;;;-5.16;92.40
21449;BME280;10885;52.830;13.788;2023-12-04T01:21:32;101728.94;;;-5.21;92.16
21449;BME280;10885;52.830;13.788;2023-12-04T01:26:35;101726.06;;;-5.35;92.11
21449;BME280;10885;52.830;13.788;2023-12-04T01:31:38;101724.06;;;-5.38;92.36
21449;BME280;10885;52.830;13.788;2023-12-04T01:36:41;101728.84;;;-5.45;92.08
21449;BME280;10885;52.830;13.788;2023-12-04T01:41:44;101731.59;;;-5.49;91.85
21449;BME280;10885;52.830;13.788;2023-12-04T01:46:47;101727.59;;;-5.60;91.65
21449;BME280;10885;52.830;13.788;2023-12-04T01:51:49;101717.19;;;-5.69;91.89
21449;BME280;10885;52.830;13.788;2023-12-04T01:56:52;101712.91;;;-5.75;91.74
21449;BME280;10885;52.830;13.788;2023-12-04T02:01:55;101705.28;;;-5.88;91.48
21449;BME280;10885;52.830;13.788;2023-12-04T02:06:58;101704.19;;;-5.96;91.47
21449;BME280;10885;52.830;13.788;2023-12-04T02:12:01;101696.94;;;-6.00;92.13
21449;BME280;10885;52.830;13.788;2023-12-04T02:17:05;101686.06;;;-6.06;91.90
21449;BME280;10885;52.830;13.788;2023-12-04T02:22:09;101685.19;;;-6.12;91.27
21449;BME280;10885;52.830;13.788;2023-12-04T02:27:19;101682.53;;;-6.20;91.51
21449;BME280;10885;52.830;13.788;2023-12-04T02:32:24;101673.47;;;-6.25;91.37
21449;BME280;10885;52.830;13.788;2023-12-04T02:37:31;101660.13;;;-6.25;91.50
21449;BME280;10885;52.830;13.788;2023-12-04T02:42:35;101654.25;;;-6.37;91.29
21449;BME280;10885;52.830;13.788;2023-12-04T02:47:38;101642.06;;;-6.41;91.43
21449;BME280;10885;52.830;13.788;2023-12-04T02:52:40;101645.66;;;-6.39;91.84
21449;BME280;10885;52.830;13.788;2023-12-04T02:57:43;101640.47;;;-6.46;91.41
21449;BME280;10885;52.830;13.788;2023-12-04T03:02:46;101640.72;;;-6.56;91.15
21449;BME280;10885;52.830;13.788;2023-12-04T03:07:48;101646.41;;;-6.63;91.01
21449;BME280;10885;52.830;13.788;2023-12-04T03:12:51;101636.44;;;-6.63;90.77
21449;BME280;10885;52.830;13.788;2023-12-04T03:17:55;101648.91;;;-6.68;90.54
21449;BME280;10885;52.830;13.788;2023-12-04T03:22:57;101654.34;;;-6.71;91.08
21449;BME280;10885;52.830;13.788;2023-12-04T03:28:00;101645.75;;;-6.73;90.28
21449;BME280;10885;52.830;13.788;2023-12-04T03:33:03;101658.91;;;-6.80;90.80
21449;BME280;10885;52.830;13.788;2023-12-04T03:38:05;101661.88;;;-6.88;90.62
21449;BME280;10885;52.830;13.788;2023-12-04T03:43:08;101650.09;;;-6.94;89.90
21449;BME280;10885;52.830;13.788;2023-12-04T03:48:11;101643.78;;;-7.04;90.58
21449;BME280;10885;52.830;13.788;2023-12-04T03:53:14;101639.00;;;-7.08;90.37
21449;BME280;10885;52.830;13.788;2023-12-04T03:58:17;101637.44;;;-7.13;90.10
21449;BME280;10885;52.830;13.788;2023-12-04T04:03:19;101624.31;;;-7.29;89.63
21449;BME280;10885;52.830;13.788;2023-12-04T04:08:22;101617.59;;;-7.41;89.82
21449;BME280;10885;52.830;13.788;2023-12-04T04:13:24;101615.56;;;-7.49;89.46
21449;BME280;10885;52.830;13.788;2023-12-04T04:18:27;101608.50;;;-7.57;90.03
21449;BME280;10885;52.830;13.788;2023-12-04T04:23:30;101615.97;;;-7.46;90.25
21449;BME280;10885;52.830;13.788;2023-12-04T04:28:32;101608.53;;;-7.46;89.71
21449;BME280;10885;52.830;13.788;2023-12-04T04:33:35;101599.72;;;-7.44;90.10
21449;BME280;10885;52.830;13.788;2023-12-04T04:38:39;101603.09;;;-7.44;90.06
21449;BME280;10885;52.830;13.788;2023-12-04T04:43:42;101601.75;;;-7.53;89.93
21449;BME280;10885;52.830;13.788;2023-12-04T04:48:45;101601.53;;;-7.54;89.77
21449;BME280;10885;52.830;13.788;2023-12-04T04:53:48;101601.75;;;-7.53;90.38
21449;BME280;10885;52.830;13.788;2023-12-04T04:58:51;101597.22;;;-7.55;89.93
21449;BME280;10885;52.830;13.788;2023-12-04T05:03:54;101593.84;;;-7.50;89.28
21449;BME280;10885;52.830;13.788;2023-12-04T05:08:57;101593.59;;;-7.52;89.56
21449;BME280;10885;52.830;13.788;2023-12-04T05:14:00;101598.38;;;-7.53;89.54
21449;BME280;10885;52.830;13.788;2023-12-04T05:19:03;101584.56;;;-7.63;90.04
21449;BME280;10885;52.830;13.788;2023-12-04T05:24:05;101583.91;;;-7.67;90.04
21449;BME280;10885;52.830;13.788;2023-12-04T05:29:08;101577.13;;;-7.63;90.00
21449;BME280;10885;52.830;13.788;2023-12-04T05:34:11;101580.25;;;-7.58;89.84
21449;BME280;10885;52.830;13.788;2023-12-04T05:39:13;101576.00;;;-7.59;90.12
21449;BME280;10885;52.830;13.788;2023-12-04T05:44:16;101576.88;;;-7.64;90.29
21449;BME280;10885;52.830;13.788;2023-12-04T05:49:19;101559.25;;;-7.66;89.82
21449;BME280;10885;52.830;13.788;2023-12-04T05:54:21;101564.00;;;-7.67;89.86
21449;BME280;10885;52.830;13.788;2023-12-04T05:59:24;101560.59;;;-7.68;89.04
21449;BME280;10885;52.830;13.788;2023-12-04T06:04:27;101547.50;;;-7.72;90.03
21449;BME280;10885;52.830;13.788;2023-12-04T06:09:29;101552.25;;;-7.74;89.81
21449;BME280;10885;52.830;13.788;2023-12-04T06:14:32;101550.44;;;-7.75;89.61
21449;BME280;10885;52.830;13.788;2023-12-04T06:19:35;101547.03;;;-7.75;89.58
21449;BME280;10885;52.830;13.788;2023-12-04T06:24:40;101551.56;;;-7.78;89.39
21449;BME280;10885;52.830;13.788;2023-12-04T06:29:46;101545.91;;;-7.77;90.12
21449;BME280;10885;52.830;13.788;2023-12-04T06:34:53;101552.00;;;-7.75;89.84
21449;BME280;10885;52.830;13.788;2023-12-04T06:39:59;101545.47;;;-7.86;90.03
21449;BME280;10885;52.830;13.788;2023-12-04T06:45:05;101551.13;;;-7.70;90.43
21449;BME280;10885;52.830;13.788;2023-12-04T06:50:08;101547.72;;;-7.60;90.92
21449;BME280;10885;52.830;13.788;2023-12-04T06:55:12;101540.25;;;-7.60;90.84
21449;BME280;10885;52.830;13.788;2023-12-04T07:00:15;101537.09;;;-7.58;90.53
21449;BME280;10885;52.830;13.788;2023-12-04T07:05:24;101556.09;;;-7.59;90.27
21449;BME280;10885;52.830;13.788;2023-12-04T07:10:26;101550.00;;;-7.67;89.29
21449;BME280;10885;52.830;13.788;2023-12-04T07:15:29;101542.31;;;-7.68;89.79
21449;BME280;10885;52.830;13.788;2023-12-04T07:20:32;101535.53;;;-7.69;90.15
21449;BME280;10885;52.830;13.788;2023-12-04T07:25:34;101540.72;;;-7.56;89.83
21449;BME280;10885;52.830;13.788;2023-12-04T07:30:38;101541.34;;;-7.41;90.72
21449;BME280;10885;52.830;13.788;2023-12-04T07:35:41;101528.44;;;-7.27;89.90
21449;BME280;10885;52.830;13.788;2023-12-04T07:40:45;101517.63;;;-7.27;89.96
21449;BME280;10885;52.830;13.788;2023-12-04T07:45:47;101518.50;;;-7.21;89.84
21449;BME280;10885;52.830;13.788;2023-12-04T07:50:50;101512.81;;;-7.20;90.03
21449;BME280;10885;52.830;13.788;2023-12-04T07:55:53;101509.44;;;-7.15;90.02
21449;BME280;10885;52.830;13.788;2023-12-04T08:00:56;101500.78;;;-7.06;89.96
21449;BME280;10885;52.830;13.788;2023-12-04T08:05:58;101503.97;;;-6.95;90.02
21449;BME280;10885;52.830;13.788;2023-12-04T08:11:01;101513.19;;;-6.89;89.42
21449;BME280;10885;52.830;13.788;2023-12-04T08:16:04;101516.56;;;-6.77;89.47
21449;BME280;10885;52.830;13.788;2023-12-04T08:21:07;101516.94;;;-6.63;90.16
21449;BME280;10885;52.830;13.788;2023-12-04T08:26:10;101515.06;;;-6.52;89.40
21449;BME280;10885;52.830;13.788;2023-12-04T08:31:13;101518.00;;;-6.44;90.15
21449;BME280;10885;52.830;13.788;2023-12-04T08:36:16;101524.75;;;-6.37;89.64
21449;BME280;10885;52.830;13.788;2023-12-04T08:41:18;101519.03;;;-6.30;89.76
21449;BME280;10885;52.830;13.788;2023-12-04T08:46:21;101508.53;;;-6.16;89.81
21449;BME280;10885;52.830;13.788;2023-12-04T08:51:24;101512.19;;;-4.94;94.49
21449;BME280;10885;52.830;13.788;2023-12-04T08:56:27;101514.88;;;-4.37;90.45
21449;BME280;10885;52.830;13.788;2023-12-04T09:01:32;101513.78;;;-4.94;88.50
21449;BME280;10885;52.830;13.788;2023-12-04T09:06:36;101509.19;;;-5.28;87.74
21449;BME280;10885;52.830;13.788;2023-12-04T09:11:43;101514.28;;;-5.40;88.10
21449;BME280;10885;52.830;13.788;2023-12-04T09:16:46;101521.81;;;-5.45;87.97
21449;BME280;10885;52.830;13.788;2023-12-04T09:21:48;101523.13;;;-5.42;88.68
21449;BME280;10885;52.830;13.788;2023-12-04T09:27:04;101513.72;;;-5.31;88.53
21449;BME280;10885;52.830;13.788;2023-12-04T09:32:09;101507.53;;;-5.22;88.83
21449;BME280;10885;52.830;13.788;2023-12-04T09:37:15;101503.59;;;-5.14;88.47
21449;BME280;10885;52.830;13.788;2023-12-04T09:42:19;101501.44;;;-5.06;89.29
21449;BME280;10885;52.830;13.788;2023-12-04T09:47:22;101486.63;;;-4.98;88.85
21449;BME280;10885;52.830;13.788;2023-12-04T09:52:27;101492.72;;;-4.96;89.03
21449;BME280;10885;52.830;13.788;2023-12-04T09:57:30;101485.59;;;-4.93;89.42
21449;BME280;10885;52.830;13.788;2023-12-04T10:02:34;101478.28;;;-4.86;89.63
21449;BME280;10885;52.830;13.788;2023-12-04T10:07:37;101463.13;;;-4.75;89.82
21449;BME280;10885;52.830;13.788;2023-12-04T10:12:43;101458.69;;;-4.65;89.37
21449;BME280;10885;52.830;13.788;2023-12-04T10:17:46;101459.78;;;-4.44;89.81
21449;BME280;10885;52.830;13.788;2023-12-04T10:23:01;101442.59;;;-4.35;89.68
21449;BME280;10885;52.830;13.788;2023-12-04T10:28:11;101432.94;;;-4.27;89.42
21449;BME280;10885;52.830;13.788;2023-12-04T10:33:15;101428.47;;;-4.16;88.99
21449;BME280;10885;52.830;13.788;2023-12-04T10:38:18;101425.66;;;-4.12;88.53
21449;BME280;10885;52.830;13.788;2023-12-04T10:43:22;101417.38;;;-4.06;88.59
21449;BME280;10885;52.830;13.788;2023-12-04T10:48:24;101427.06;;;-4.02;88.55
21449;BME280;10885;52.830;13.788;2023-12-04T10:53:28;101418.47;;;-4.04;88.40
21449;BME280;10885;52.830;13.788;2023-12-04T10:58:32;101402.41;;;-3.93;88.57
21449;BME280;10885;52.830;13.788;2023-12-04T11:03:42;101399.69;;;-3.82;88.61
21449;BME280;10885;52.830;13.788;2023-12-04T11:08:48;101401.47;;;-3.68;88.77
21449;BME280;10885;52.830;13.788;2023-12-04T11:13:54;101398.69;;;-3.51;88.87
21449;BME280;10885;52.830;13.788;2023-12-04T11:24:08;101383.25;;;-3.08;88.57
21449;BME280;10885;52.830;13.788;2023-12-04T11:29:12;101385.28;;;-2.86;87.91
21449;BME280;10885;52.830;13.788;2023-12-04T11:34:16;101381.41;;;-2.76;87.82
21449;BME280;10885;52.830;13.788;2023-12-04T11:39:19;101370.59;;;-2.70;87.84
21449;BME280;10885;52.830;13.788;2023-12-04T11:44:22;101368.00;;;-2.57;86.79
21449;BME280;10885;52.830;13.788;2023-12-04T11:49:31;101363.38;;;-2.54;87.40
21449;BME280;10885;52.830;13.788;2023-12-04T11:55:09;101352.78;;;-2.58;87.98
21449;BME280;10885;52.830;13.788;2023-12-04T12:05:23;101342.09;;;-2.70;87.21
21449;BME280;10885;52.830;13.788;2023-12-04T12:10:29;101346.22;;;-2.71;87.58
21449;BME280;10885;52.830;13.788;2023-12-04T12:15:34;101335.34;;;-2.64;87.67
21449;BME280;10885;52.830;13.788;2023-12-04T12:20:38;101326.28;;;-2.56;87.79
21449;BME280;10885;52.830;13.788;2023-12-04T12:25:40;101323.84;;;-2.49;87.15
21449;BME280;10885;52.830;13.788;2023-12-04T12:30:44;101322.63;;;-2.46;87.48
21449;BME280;10885;52.830;13.788;2023-12-04T12:35:48;101304.88;;;-2.47;87.06
21449;BME280;10885;52.830;13.788;2023-12-04T12:41:06;101300.75;;;-2.47;87.47
21449;BME280;10885;52.830;13.788;2023-12-04T12:46:10;101303.81;;;-2.49;87.57
21449;BME280;10885;52.830;13.788;2023-12-04T12:51:13;101297.50;;;-2.53;88.24
21449;BME280;10885;52.830;13.788;2023-12-04T12:56:15;101298.22;;;-2.54;88.53
21449;BME280;10885;52.830;13.788;2023-12-04T13:01:18;101292.47;;;-2.60;87.91
21449;BME280;10885;52.830;13.788;2023-12-04T13:06:21;101297.84;;;-2.57;88.25
21449;BME280;10885;52.830;13.788;2023-12-04T13:11:23;101279.41;;;-2.57;88.04
21449;BME280;10885;52.830;13.788;2023-12-04T13:16:26;101273.09;;;-2.61;88.52
21449;BME280;10885;52.830;13.788;2023-12-04T13:21:29;101267.75;;;-2.57;88.43
21449;BME280;10885;52.830;13.788;2023-12-04T13:26:33;101264.91;;;-2.60;88.80
21449;BME280;10885;52.830;13.788;2023-12-04T13:31:36;101266.69;;;-2.59;89.00
21449;BME280;10885;52.830;13.788;2023-12-04T13:36:39;101260.56;;;-2.61;88.92
21449;BME280;10885;52.830;13.788;2023-12-04T13:41:45;101250.88;;;-2.65;89.10
21449;BME280;10885;52.830;13.788;2023-12-04T13:47:06;101239.63;;;-2.62;89.27
21449;BME280;10885;52.830;13.788;2023-12-04T13:52:09;101228.19;;;-2.60;89.16
21449;BME280;10885;52.830;13.788;2023-12-04T13:57:12;101221.38;;;-2.61;89.41
21449;BME280;10885;52.830;13.788;2023-12-04T14:02:23;101217.97;;;-2.61;89.49
21449;BME280;10885;52.830;13.788;2023-12-04T14:07:26;101197.22;;;-2.60;89.88
21449;BME280;10885;52.830;13.788;2023-12-04T14:12:30;101198.13;;;-2.60;89.80
21449;BME280;10885;52.830;13.788;2023-12-04T14:17:32;101209.56;;;-2.62;89.54
21449;BME280;10885;52.830;13.788;2023-12-04T14:22:35;101203.09;;;-2.67;89.84
21449;BME280;10885;52.830;13.788;2023-12-04T14:27:38;101190.19;;;-2.70;90.03
21449;BME280;10885;52.830;13.788;2023-12-04T14:32:42;101183.91;;;-2.73;89.95
21449;BME280;10885;52.830;13.788;2023-12-04T14:37:49;101190.81;;;-2.78;89.95
21449;BME280;10885;52.830;13.788;2023-12-04T14:42:55;101184.38;;;-2.83;90.44
21449;BME280;10885;52.830;13.788;2023-12-04T14:47:58;101180.78;;;-2.85;90.09
21449;BME280;10885;52.830;13.788;2023-12-04T14:53:02;101176.78;;;-2.90;90.39
21449;BME280;10885;52.830;13.788;2023-12-04T14:58:18;101178.34;;;-2.98;90.29
21449;BME280;10885;52.830;13.788;2023-12-04T15:03:30;101185.31;;;-3.03;90.46
21449;BME280;10885;52.830;13.788;2023-12-04T15:08:51;101174.00;;;-3.06;90.53
21449;BME280;10885;52.830;13.788;2023-12-04T15:13:57;101165.25;;;-3.10;90.53
21449;BME280;10885;52.830;13.788;2023-12-04T15:19:18;101157.34;;;-3.13;90.81
21449;BME280;10885;52.830;13.788;2023-12-04T15:24:46;101153.75;;;-3.15;90.84
21449;BME280;10885;52.830;13.788;2023-12-04T15:29:49;101153.19;;;-3.20;91.02
21449;BME280;10885;52.830;13.788;2023-12-04T15:34:51;101150.50;;;-3.14;91.25
21449;BME280;10885;52.830;13.788;2023-12-04T15:39:55;101146.91;;;-3.16;91.05
21449;BME280;10885;52.830;13.788;2023-12-04T15:45:00;101144.94;;;-3.18;90.92
21449;BME280;10885;52.830;13.788;2023-12-04T15:50:05;101145.66;;;-3.20;90.72
21449;BME280;10885;52.830;13.788;2023-12-04T15:55:10;101130.44;;;-3.21;91.12
21449;BME280;10885;52.830;13.788;2023-12-04T16:00:15;101125.44;;;-3.21;90.93
21449;BME280;10885;52.830;13.788;2023-12-04T16:05:18;101130.44;;;-3.21;90.86
21449;BME280;10885;52.830;13.788;2023-12-04T16:10:21;101114.00;;;-3.19;90.56
21449;BME280;10885;52.830;13.788;2023-12-04T16:15:24;101115.09;;;-3.17;90.77
21449;BME280;10885;52.830;13.788;2023-12-04T16:20:27;101110.97;;;-3.16;90.80
21449;BME280;10885;52.830;13.788;2023-12-04T16:25:30;101118.34;;;-3.11;90.74
21449;BME280;10885;52.830;13.788;2023-12-04T16:30:33;101114.44;;;-3.09;90.64
21449;BME280;10885;52.830;13.788;2023-12-04T16:35:35;101104.41;;;-3.09;90.51
21449;BME280;10885;52.830;13.788;2023-12-04T16:40:38;101104.97;;;-3.04;90.52
21449;BME280;10885;52.830;13.788;2023-12-04T16:45:41;101097.66;;;-3.03;90.78
21449;BME280;10885;52.830;13.788;2023-12-04T16:50:43;101096.25;;;-3.01;90.63
21449;BME280;10885;52.830;13.788;2023-12-04T16:55:46;101083.72;;;-3.01;90.71
21449;BME280;10885;52.830;13.788;2023-12-04T17:00:49;101082.31;;;-2.98;90.70
21449;BME280;10885;52.830;13.788;2023-12-04T17:05:52;101086.09;;;-2.95;90.60
21449;BME280;10885;52.830;13.788;2023-12-04T17:10:55;101069.81;;;-2.91;90.37
21449;BME280;10885;52.830;13.788;2023-12-04T17:15:58;101072.19;;;-2.78;90.49
21449;BME280;10885;52.830;13.788;2023-12-04T17:21:00;101073.28;;;-2.76;90.56
21449;BME280;10885;52.830;13.788;2023-12-04T17:26:03;101066.31;;;-2.79;90.39
21449;BME280;10885;52.830;13.788;2023-12-04T17:31:08;101058.41;;;-2.82;90.21
21449;BME280;10885;52.830;13.788;2023-12-04T17:36:12;101052.50;;;-2.83;89.89
21449;BME280;10885;52.830;13.788;2023-12-04T17:41:15;101037.13;;;-2.86;89.69
21449;BME280;10885;52.830;13.788;2023-12-04T17:46:17;101031.03;;;-2.88;89.98
21449;BME280;10885;52.830;13.788;2023-12-04T17:51:20;101031.88;;;-2.94;90.01
21449;BME280;10885;52.830;13.788;2023-12-04T17:56:23;101034.03;;;-2.97;89.80
21449;BME280;10885;52.830;13.788;2023-12-04T18:01:25;101023.44;;;-3.02;89.93
21449;BME280;10885;52.830;13.788;2023-12-04T18:06:29;101025.25;;;-3.01;90.01
21449;BME280;10885;52.830;13.788;2023-12-04T18:11:33;101031.13;;;-3.01;89.92
21449;BME280;10885;52.830;13.788;2023-12-04T18:16:36;101032.22;;;-2.98;89.78
21449;BME280;10885;52.830;13.788;2023-12-04T18:21:39;101033.53;;;-2.81;89.66
21449;BME280;10885;52.830;13.788;2023-12-04T18:26:43;101032.84;;;-2.80;89.34
21449;BME280;10885;52.830;13.788;2023-12-04T18:31:46;101033.00;;;-2.85;89.23
21449;BME280;10885;52.830;13.788;2023-12-04T18:36:53;101031.53;;;-2.90;89.23
21449;BME280;10885;52.830;13.788;2023-12-04T18:41:56;101029.38;;;-2.94;89.17
21449;BME280;10885;52.830;13.788;2023-12-04T18:46:59;101027.59;;;-2.95;89.21
21449;BME280;10885;52.830;13.788;2023-12-04T18:52:02;101030.28;;;-2.94;88.87
21449;BME280;10885;52.830;13.788;2023-12-04T18:57:05;101027.41;;;-2.97;88.96
21449;BME280;10885;52.830;13.788;2023-12-04T19:02:07;101020.41;;;-3.00;89.07
21449;BME280;10885;52.830;13.788;2023-12-04T19:07:10;101014.69;;;-2.98;88.93
21449;BME280;10885;52.830;13.788;2023-12-04T19:12:13;101003.59;;;-3.01;88.90
21449;BME280;10885;52.830;13.788;2023-12-04T19:17:16;101001.97;;;-3.00;88.90
21449;BME280;10885;52.830;13.788;2023-12-04T19:22:19;100996.06;;;-3.01;89.09
21449;BME280;10885;52.830;13.788;2023-12-04T19:27:22;100993.56;;;-3.01;88.95
21449;BME280;10885;52.830;13.788;2023-12-04T19:32:24;100981.59;;;-3.03;89.03
21449;BME280;10885;52.830;13.788;2023-12-04T19:37:27;100976.56;;;-3.03;88.79
21449;BME280;10885;52.830;13.788;2023-12-04T19:42:30;100974.97;;;-3.03;88.71
21449;BME280;10885;52.830;13.788;2023-12-04T19:47:33;100966.56;;;-3.03;88.75
21449;BME280;10885;52.830;13.788;2023-12-04T19:52:37;100960.47;;;-3.05;88.68
21449;BME280;10885;52.830;13.788;2023-12-04T19:57:39;100955.47;;;-3.05;88.47
21449;BME280;10885;52.830;13.788;2023-12-04T20:02:42;100954.75;;;-3.04;88.73
21449;BME280;10885;52.830;13.788;2023-12-04T20:07:45;100951.88;;;-3.07;88.70
21449;BME280;10885;52.830;13.788;2023-12-04T20:12:47;100939.91;;;-3.10;88.62
21449;BME280;10885;52.830;13.788;2023-12-04T20:17:50;100933.09;;;-3.11;88.39
21449;BME280;10885;52.830;13.788;2023-12-04T20:22:53;100932.19;;;-3.11;88.49
21449;BME280;10885;52.830;13.788;2023-12-04T20:27:55;100923.59;;;-3.13;88.50
21449;BME280;10885;52.830;13.788;2023-12-04T20:32:58;100913.41;;;-3.15;88.74
21449;BME280;10885;52.830;13.788;2023-12-04T20:38:02;100910.72;;;-3.16;88.70
21449;BME280;10885;52.830;13.788;2023-12-04T20:43:04;100913.03;;;-3.18;88.76
21449;BME280;10885;52.830;13.788;2023-12-04T20:48:09;100903.00;;;-3.18;88.72
21449;BME280;10885;52.830;13.788;2023-12-04T20:53:13;100897.50;;;-3.15;88.70
21449;BME280;10885;52.830;13.788;2023-12-04T20:58:17;100895.69;;;-3.16;88.64
21449;BME280;10885;52.830;13.788;2023-12-04T21:03:20;100905.16;;;-3.14;88.27
21449;BME280;10885;52.830;13.788;2023-12-04T21:08:22;100914.69;;;-3.11;88.37
21449;BME280;10885;52.830;13.788;2023-12-04T21:13:25;100908.25;;;-3.09;88.11
21449;BME280;10885;52.830;13.788;2023-12-04T21:18:28;100901.63;;;-3.09;87.81
21449;BME280;10885;52.830;13.788;2023-12-04T21:23:31;100901.81;;;-3.07;87.77
21449;BME280;10885;52.830;13.788;2023-12-04T21:28:33;100899.50;;;-3.06;87.87
21449;BME280;10885;52.830;13.788;2023-12-04T21:33:36;100896.25;;;-3.05;87.80
21449;BME280;10885;52.830;13.788;2023-12-04T21:38:40;100893.22;;;-3.02;87.53
21449;BME280;10885;52.830;13.788;2023-12-04T21:43:43;100880.00;;;-3.01;87.79
21449;BME280;10885;52.830;13.788;2023-12-04T21:48:45;100882.69;;;-3.00;87.49
21449;BME280;10885;52.830;13.788;2023-12-04T21:53:48;100873.75;;;-2.97;87.81
21449;BME280;10885;52.830;13.788;2023-12-04T21:58:51;100875.72;;;-2.95;87.64
21449;BME280;10885;52.830;13.788;2023-12-04T22:03:54;100863.56;;;-2.92;87.23
21449;BME280;10885;52.830;13.788;2023-12-04T22:08:57;100857.31;;;-2.95;87.43
21449;BME280;10885;52.830;13.788;2023-12-04T22:14:00;100866.94;;;-2.98;87.68
21449;BME280;10885;52.830;13.788;2023-12-04T22:19:03;100861.22;;;-3.05;87.72
21449;BME280;10885;52.830;13.788;2023-12-04T22:24:07;100866.41;;;-3.03;87.73
21449;BME280;10885;52.830;13.788;2023-12-04T22:29:10;100864.09;;;-3.02;87.24
21449;BME280;10885;52.830;13.788;2023-12-04T22:34:12;100855.66;;;-3.02;87.77
21449;BME280;10885;52.830;13.788;2023-12-04T22:39:15;100857.09;;;-3.04;87.54
21449;BME280;10885;52.830;13.788;2023-12-04T22:44:18;100854.03;;;-3.09;87.35
21449;BME280;10885;52.830;13.788;2023-12-04T22:49:20;100846.50;;;-3.16;87.51
21449;BME280;10885;52.830;13.788;2023-12-04T22:54:23;100835.59;;;-3.24;87.51
21449;BME280;10885;52.830;13.788;2023-12-04T22:59:26;100834.50;;;-3.33;87.77
21449;BME280;10885;52.830;13.788;2023-12-04T23:04:29;100831.47;;;-3.37;87.68
21449;BME280;10885;52.830;13.788;2023-12-04T23:09:32;100837.84;;;-3.47;87.84
21449;BME280;10885;52.830;13.788;2023-12-04T23:14:36;100820.84;;;-3.56;87.62
